Avoca, Illinois
Current Conditions -  °F | °C
As of 10:15 AM on Sunday 25 Jan 2015 (Local Time) from KPNT Reporting Station
Light Snow Light Snow  
Wind Chill: 22°   Ceiling: 400
Heat Index: 34°   Visibility: 1.5mi
Dew Point: 33°   Wind: 20mph
Humidity: 99%   Direction: 50°NE
Pressure: 29.7"   Gusts: NA
Location:  40.7318°N, 88.524°W
Report Text: KPNT 251615Z AUTO 05017KT 1 1/2SM -SN OVC004 01/01 A2970 RMK AO2 P0001 T00100008
Loading
Personal Weather Stations






























Interactive Weather Map New forecast layout! Learn more

10-Day Weather Forecast

Advertisements
Track Severe Weather on mobile